sensor_id;sensor_type;location;lat;lon;timestamp;P1;durP1;ratioP1;P2;durP2;ratioP2
9689;SDS011;4884;42.614;23.340;2023-03-16T00:00:01;1.43;;;1.20;;
9689;SDS011;4884;42.614;23.340;2023-03-16T00:02:28;1.30;;;1.20;;
9689;SDS011;4884;42.614;23.340;2023-03-16T00:04:53;4.27;;;2.17;;
9689;SDS011;4884;42.614;23.340;2023-03-16T00:07:19;2.17;;;1.10;;
9689;SDS011;4884;42.614;23.340;2023-03-16T00:09:45;1.20;;;1.10;;
9689;SDS011;4884;42.614;23.340;2023-03-16T00:12:12;1.67;;;1.40;;
9689;SDS011;4884;42.614;23.340;2023-03-16T00:14:42;0.93;;;0.90;;
9689;SDS011;4884;42.614;23.340;2023-03-16T00:17:13;2.67;;;1.40;;
9689;SDS011;4884;42.614;23.340;2023-03-16T00:19:43;0.90;;;0.90;;
9689;SDS011;4884;42.614;23.340;2023-03-16T00:22:13;0.80;;;0.80;;
9689;SDS011;4884;42.614;23.340;2023-03-16T00:24:39;1.67;;;1.30;;
9689;SDS011;4884;42.614;23.340;2023-03-16T00:27:09;1.93;;;1.53;;
9689;SDS011;4884;42.614;23.340;2023-03-16T00:29:42;2.87;;;1.47;;
9689;SDS011;4884;42.614;23.340;2023-03-16T00:32:15;0.93;;;0.93;;
9689;SDS011;4884;42.614;23.340;2023-03-16T00:34:41;1.20;;;1.10;;
9689;SDS011;4884;42.614;23.340;2023-03-16T00:37:07;0.90;;;0.90;;
9689;SDS011;4884;42.614;23.340;2023-03-16T00:39:33;1.10;;;1.10;;
9689;SDS011;4884;42.614;23.340;2023-03-16T00:42:00;1.40;;;1.30;;
9689;SDS011;4884;42.614;23.340;2023-03-16T00:44:25;1.20;;;1.00;;
9689;SDS011;4884;42.614;23.340;2023-03-16T00:46:51;1.50;;;1.40;;
9689;SDS011;4884;42.614;23.340;2023-03-16T00:49:16;1.33;;;1.23;;
9689;SDS011;4884;42.614;23.340;2023-03-16T00:51:41;1.80;;;1.70;;
9689;SDS011;4884;42.614;23.340;2023-03-16T00:54:10;1.23;;;1.10;;
9689;SDS011;4884;42.614;23.340;2023-03-16T00:56:36;1.63;;;1.27;;
9689;SDS011;4884;42.614;23.340;2023-03-16T00:59:02;1.33;;;1.23;;
9689;SDS011;4884;42.614;23.340;2023-03-16T01:01:30;1.33;;;1.17;;
9689;SDS011;4884;42.614;23.340;2023-03-16T01:03:56;1.37;;;0.90;;
9689;SDS011;4884;42.614;23.340;2023-03-16T01:06:23;0.70;;;0.70;;
9689;SDS011;4884;42.614;23.340;2023-03-16T01:08:49;1.80;;;0.80;;
9689;SDS011;4884;42.614;23.340;2023-03-16T01:11:17;1.33;;;0.90;;
9689;SDS011;4884;42.614;23.340;2023-03-16T01:13:43;1.03;;;0.90;;
9689;SDS011;4884;42.614;23.340;2023-03-16T01:16:11;0.87;;;0.87;;
9689;SDS011;4884;42.614;23.340;2023-03-16T01:18:37;1.53;;;0.83;;
9689;SDS011;4884;42.614;23.340;2023-03-16T01:21:03;1.00;;;0.90;;
9689;SDS011;4884;42.614;23.340;2023-03-16T01:23:29;1.23;;;0.90;;
9689;SDS011;4884;42.614;23.340;2023-03-16T01:25:55;1.00;;;0.90;;
9689;SDS011;4884;42.614;23.340;2023-03-16T01:28:22;1.93;;;1.20;;
9689;SDS011;4884;42.614;23.340;2023-03-16T01:30:49;2.90;;;1.43;;
9689;SDS011;4884;42.614;23.340;2023-03-16T01:33:18;1.60;;;1.43;;
9689;SDS011;4884;42.614;23.340;2023-03-16T01:35:50;1.47;;;1.30;;
9689;SDS011;4884;42.614;23.340;2023-03-16T01:38:17;0.90;;;0.90;;
9689;SDS011;4884;42.614;23.340;2023-03-16T01:40:43;0.70;;;0.70;;
9689;SDS011;4884;42.614;23.340;2023-03-16T01:43:09;1.27;;;1.13;;
9689;SDS011;4884;42.614;23.340;2023-03-16T01:48:28;1.07;;;0.97;;
9689;SDS011;4884;42.614;23.340;2023-03-16T01:51:23;0.70;;;0.70;;
9689;SDS011;4884;42.614;23.340;2023-03-16T01:53:54;0.80;;;0.80;;
9689;SDS011;4884;42.614;23.340;2023-03-16T01:56:24;0.83;;;0.83;;
9689;SDS011;4884;42.614;23.340;2023-03-16T01:58:52;0.87;;;0.63;;
9689;SDS011;4884;42.614;23.340;2023-03-16T02:01:22;1.10;;;1.00;;
9689;SDS011;4884;42.614;23.340;2023-03-16T02:03:49;0.80;;;0.80;;
9689;SDS011;4884;42.614;23.340;2023-03-16T02:06:19;0.60;;;0.60;;
9689;SDS011;4884;42.614;23.340;2023-03-16T02:08:47;1.90;;;0.90;;
9689;SDS011;4884;42.614;23.340;2023-03-16T02:11:13;0.80;;;0.80;;
9689;SDS011;4884;42.614;23.340;2023-03-16T02:13:43;2.10;;;1.37;;
9689;SDS011;4884;42.614;23.340;2023-03-16T02:16:09;0.90;;;0.83;;
9689;SDS011;4884;42.614;23.340;2023-03-16T02:18:36;0.90;;;0.90;;
9689;SDS011;4884;42.614;23.340;2023-03-16T02:23:43;0.47;;;0.47;;
9689;SDS011;4884;42.614;23.340;2023-03-16T02:31:40;0.50;;;0.50;;
9689;SDS011;4884;42.614;23.340;2023-03-16T02:34:07;0.50;;;0.50;;
9689;SDS011;4884;42.614;23.340;2023-03-16T02:36:32;0.60;;;0.60;;
9689;SDS011;4884;42.614;23.340;2023-03-16T02:38:58;0.80;;;0.70;;
9689;SDS011;4884;42.614;23.340;2023-03-16T02:41:24;1.30;;;1.20;;
9689;SDS011;4884;42.614;23.340;2023-03-16T02:43:50;1.13;;;0.80;;
9689;SDS011;4884;42.614;23.340;2023-03-16T02:46:20;0.70;;;0.70;;
9689;SDS011;4884;42.614;23.340;2023-03-16T02:51:32;0.50;;;0.50;;
9689;SDS011;4884;42.614;23.340;2023-03-16T02:53:57;0.93;;;0.60;;
9689;SDS011;4884;42.614;23.340;2023-03-16T02:56:23;0.73;;;0.60;;
9689;SDS011;4884;42.614;23.340;2023-03-16T02:58:49;0.70;;;0.60;;
9689;SDS011;4884;42.614;23.340;2023-03-16T03:01:14;0.50;;;0.50;;
9689;SDS011;4884;42.614;23.340;2023-03-16T03:03:40;0.50;;;0.50;;
9689;SDS011;4884;42.614;23.340;2023-03-16T03:06:06;2.87;;;1.90;;
9689;SDS011;4884;42.614;23.340;2023-03-16T03:08:31;0.87;;;0.40;;
9689;SDS011;4884;42.614;23.340;2023-03-16T03:10:57;0.50;;;0.50;;
9689;SDS011;4884;42.614;23.340;2023-03-16T03:13:23;0.70;;;0.67;;
9689;SDS011;4884;42.614;23.340;2023-03-16T03:15:48;1.87;;;0.63;;
9689;SDS011;4884;42.614;23.340;2023-03-16T03:18:14;0.70;;;0.63;;
9689;SDS011;4884;42.614;23.340;2023-03-16T03:20:39;0.77;;;0.70;;
9689;SDS011;4884;42.614;23.340;2023-03-16T03:23:05;0.50;;;0.50;;
9689;SDS011;4884;42.614;23.340;2023-03-16T03:25:30;0.57;;;0.50;;
9689;SDS011;4884;42.614;23.340;2023-03-16T03:27:59;2.87;;;0.47;;
9689;SDS011;4884;42.614;23.340;2023-03-16T03:30:26;1.20;;;1.10;;
9689;SDS011;4884;42.614;23.340;2023-03-16T03:32:52;2.47;;;0.60;;
9689;SDS011;4884;42.614;23.340;2023-03-16T03:35:18;0.57;;;0.57;;
9689;SDS011;4884;42.614;23.340;2023-03-16T03:37:44;1.43;;;0.53;;
9689;SDS011;4884;42.614;23.340;2023-03-16T03:40:10;0.70;;;0.70;;
9689;SDS011;4884;42.614;23.340;2023-03-16T03:42:38;0.30;;;0.30;;
9689;SDS011;4884;42.614;23.340;2023-03-16T03:45:05;0.50;;;0.50;;
9689;SDS011;4884;42.614;23.340;2023-03-16T03:47:31;0.80;;;0.60;;
9689;SDS011;4884;42.614;23.340;2023-03-16T03:49:57;0.93;;;0.87;;
9689;SDS011;4884;42.614;23.340;2023-03-16T03:52:22;0.83;;;0.50;;
9689;SDS011;4884;42.614;23.340;2023-03-16T03:54:48;1.17;;;0.30;;
9689;SDS011;4884;42.614;23.340;2023-03-16T03:57:13;0.90;;;0.60;;
9689;SDS011;4884;42.614;23.340;2023-03-16T03:59:38;1.00;;;0.53;;
9689;SDS011;4884;42.614;23.340;2023-03-16T04:02:08;0.80;;;0.50;;
9689;SDS011;4884;42.614;23.340;2023-03-16T04:04:34;0.77;;;0.63;;
9689;SDS011;4884;42.614;23.340;2023-03-16T04:06:59;1.07;;;0.70;;
9689;SDS011;4884;42.614;23.340;2023-03-16T04:09:25;1.47;;;0.60;;
9689;SDS011;4884;42.614;23.340;2023-03-16T04:11:50;0.53;;;0.40;;
9689;SDS011;4884;42.614;23.340;2023-03-16T04:14:16;2.30;;;0.80;;
9689;SDS011;4884;42.614;23.340;2023-03-16T04:16:41;1.97;;;0.70;;
9689;SDS011;4884;42.614;23.340;2023-03-16T04:19:08;24.83;;;17.90;;
9689;SDS011;4884;42.614;23.340;2023-03-16T04:21:34;1.10;;;1.00;;
9689;SDS011;4884;42.614;23.340;2023-03-16T04:23:59;0.60;;;0.60;;
9689;SDS011;4884;42.614;23.340;2023-03-16T04:26:27;0.83;;;0.60;;
9689;SDS011;4884;42.614;23.340;2023-03-16T04:28:53;0.97;;;0.80;;
9689;SDS011;4884;42.614;23.340;2023-03-16T04:31:18;0.93;;;0.50;;
9689;SDS011;4884;42.614;23.340;2023-03-16T04:33:44;0.40;;;0.37;;
9689;SDS011;4884;42.614;23.340;2023-03-16T04:36:09;0.80;;;0.63;;
9689;SDS011;4884;42.614;23.340;2023-03-16T04:38:36;1.17;;;0.50;;
9689;SDS011;4884;42.614;23.340;2023-03-16T04:41:02;1.30;;;0.60;;
9689;SDS011;4884;42.614;23.340;2023-03-16T04:43:28;1.47;;;0.90;;
9689;SDS011;4884;42.614;23.340;2023-03-16T04:45:54;1.23;;;0.80;;
9689;SDS011;4884;42.614;23.340;2023-03-16T04:48:19;1.77;;;1.17;;
9689;SDS011;4884;42.614;23.340;2023-03-16T04:50:46;1.93;;;1.23;;
9689;SDS011;4884;42.614;23.340;2023-03-16T04:53:12;1.47;;;0.90;;
9689;SDS011;4884;42.614;23.340;2023-03-16T04:55:37;0.80;;;0.70;;
9689;SDS011;4884;42.614;23.340;2023-03-16T04:58:02;0.50;;;0.50;;
9689;SDS011;4884;42.614;23.340;2023-03-16T05:00:28;1.30;;;1.00;;
9689;SDS011;4884;42.614;23.340;2023-03-16T05:02:53;1.27;;;0.80;;
9689;SDS011;4884;42.614;23.340;2023-03-16T05:05:19;2.87;;;1.53;;
9689;SDS011;4884;42.614;23.340;2023-03-16T05:07:45;2.80;;;1.77;;
9689;SDS011;4884;42.614;23.340;2023-03-16T05:10:11;1.93;;;1.30;;
9689;SDS011;4884;42.614;23.340;2023-03-16T05:12:38;2.43;;;1.00;;
9689;SDS011;4884;42.614;23.340;2023-03-16T05:15:04;1.27;;;0.97;;
9689;SDS011;4884;42.614;23.340;2023-03-16T05:17:30;1.17;;;0.83;;
9689;SDS011;4884;42.614;23.340;2023-03-16T05:19:56;1.93;;;1.10;;
9689;SDS011;4884;42.614;23.340;2023-03-16T05:22:21;3.17;;;1.23;;
9689;SDS011;4884;42.614;23.340;2023-03-16T05:24:47;1.70;;;1.60;;
9689;SDS011;4884;42.614;23.340;2023-03-16T05:27:13;2.97;;;1.77;;
9689;SDS011;4884;42.614;23.340;2023-03-16T05:29:38;4.37;;;1.67;;
9689;SDS011;4884;42.614;23.340;2023-03-16T05:32:04;3.23;;;1.80;;
9689;SDS011;4884;42.614;23.340;2023-03-16T05:34:30;2.73;;;1.60;;
9689;SDS011;4884;42.614;23.340;2023-03-16T05:36:56;9.57;;;6.47;;
9689;SDS011;4884;42.614;23.340;2023-03-16T05:39:21;1.60;;;0.77;;
9689;SDS011;4884;42.614;23.340;2023-03-16T05:41:47;1.27;;;1.17;;
9689;SDS011;4884;42.614;23.340;2023-03-16T05:44:13;0.80;;;0.77;;
9689;SDS011;4884;42.614;23.340;2023-03-16T05:46:38;1.87;;;1.70;;
9689;SDS011;4884;42.614;23.340;2023-03-16T05:49:03;3.03;;;1.37;;
9689;SDS011;4884;42.614;23.340;2023-03-16T05:51:28;2.20;;;1.80;;
9689;SDS011;4884;42.614;23.340;2023-03-16T05:53:54;2.40;;;1.30;;
9689;SDS011;4884;42.614;23.340;2023-03-16T05:56:26;14.87;;;5.07;;
9689;SDS011;4884;42.614;23.340;2023-03-16T05:58:52;4.00;;;3.60;;
9689;SDS011;4884;42.614;23.340;2023-03-16T06:01:18;4.07;;;1.87;;
9689;SDS011;4884;42.614;23.340;2023-03-16T06:03:44;5.37;;;3.37;;
9689;SDS011;4884;42.614;23.340;2023-03-16T06:06:14;3.97;;;1.93;;
9689;SDS011;4884;42.614;23.340;2023-03-16T06:08:40;16.63;;;14.97;;
9689;SDS011;4884;42.614;23.340;2023-03-16T06:11:06;3.40;;;2.37;;
9689;SDS011;4884;42.614;23.340;2023-03-16T06:13:31;8.47;;;6.50;;
9689;SDS011;4884;42.614;23.340;2023-03-16T06:15:57;24.60;;;19.77;;
9689;SDS011;4884;42.614;23.340;2023-03-16T06:18:22;4.87;;;2.67;;
9689;SDS011;4884;42.614;23.340;2023-03-16T06:20:47;8.90;;;6.90;;
9689;SDS011;4884;42.614;23.340;2023-03-16T06:23:13;11.40;;;7.50;;
9689;SDS011;4884;42.614;23.340;2023-03-16T06:25:38;7.13;;;5.53;;
9689;SDS011;4884;42.614;23.340;2023-03-16T06:28:04;8.30;;;7.43;;
9689;SDS011;4884;42.614;23.340;2023-03-16T06:30:30;3.93;;;2.47;;
9689;SDS011;4884;42.614;23.340;2023-03-16T06:32:55;5.80;;;4.70;;
9689;SDS011;4884;42.614;23.340;2023-03-16T06:35:21;3.07;;;2.67;;
9689;SDS011;4884;42.614;23.340;2023-03-16T06:37:47;3.63;;;3.33;;
9689;SDS011;4884;42.614;23.340;2023-03-16T06:40:12;4.70;;;3.53;;
9689;SDS011;4884;42.614;23.340;2023-03-16T06:42:37;5.53;;;2.60;;
9689;SDS011;4884;42.614;23.340;2023-03-16T06:45:03;3.57;;;1.90;;
9689;SDS011;4884;42.614;23.340;2023-03-16T06:47:29;7.70;;;6.37;;
9689;SDS011;4884;42.614;23.340;2023-03-16T06:49:54;2.10;;;1.90;;
9689;SDS011;4884;42.614;23.340;2023-03-16T06:52:20;8.57;;;7.73;;
9689;SDS011;4884;42.614;23.340;2023-03-16T06:54:45;11.07;;;10.07;;
9689;SDS011;4884;42.614;23.340;2023-03-16T06:57:11;1.50;;;1.40;;
9689;SDS011;4884;42.614;23.340;2023-03-16T06:59:36;3.43;;;3.13;;
9689;SDS011;4884;42.614;23.340;2023-03-16T07:02:02;5.57;;;5.07;;
9689;SDS011;4884;42.614;23.340;2023-03-16T07:04:27;5.40;;;5.00;;
9689;SDS011;4884;42.614;23.340;2023-03-16T07:06:52;3.70;;;3.03;;
9689;SDS011;4884;42.614;23.340;2023-03-16T07:09:18;3.27;;;1.63;;
9689;SDS011;4884;42.614;23.340;2023-03-16T07:11:43;6.77;;;6.07;;
9689;SDS011;4884;42.614;23.340;2023-03-16T07:14:09;2.77;;;2.10;;
9689;SDS011;4884;42.614;23.340;2023-03-16T07:16:35;2.87;;;2.50;;
9689;SDS011;4884;42.614;23.340;2023-03-16T07:19:00;1.73;;;1.63;;
9689;SDS011;4884;42.614;23.340;2023-03-16T07:21:25;7.73;;;3.20;;
9689;SDS011;4884;42.614;23.340;2023-03-16T07:23:51;7.90;;;4.80;;
9689;SDS011;4884;42.614;23.340;2023-03-16T07:26:16;5.97;;;3.63;;
9689;SDS011;4884;42.614;23.340;2023-03-16T07:28:41;7.60;;;3.43;;
9689;SDS011;4884;42.614;23.340;2023-03-16T07:31:07;8.60;;;6.50;;
9689;SDS011;4884;42.614;23.340;2023-03-16T07:33:34;3.17;;;2.67;;
9689;SDS011;4884;42.614;23.340;2023-03-16T07:35:59;10.00;;;9.13;;
9689;SDS011;4884;42.614;23.340;2023-03-16T07:38:28;3.97;;;3.30;;
9689;SDS011;4884;42.614;23.340;2023-03-16T07:40:54;4.20;;;3.83;;
9689;SDS011;4884;42.614;23.340;2023-03-16T07:43:19;1.73;;;1.30;;
9689;SDS011;4884;42.614;23.340;2023-03-16T07:45:51;2.90;;;2.70;;
9689;SDS011;4884;42.614;23.340;2023-03-16T07:48:16;5.07;;;4.67;;
9689;SDS011;4884;42.614;23.340;2023-03-16T07:50:42;5.97;;;5.47;;
9689;SDS011;4884;42.614;23.340;2023-03-16T07:53:08;2.47;;;2.27;;
9689;SDS011;4884;42.614;23.340;2023-03-16T07:55:34;12.40;;;11.30;;
9689;SDS011;4884;42.614;23.340;2023-03-16T07:58:00;4.90;;;4.40;;
9689;SDS011;4884;42.614;23.340;2023-03-16T08:00:26;3.80;;;3.50;;
9689;SDS011;4884;42.614;23.340;2023-03-16T08:02:51;7.47;;;6.87;;
9689;SDS011;4884;42.614;23.340;2023-03-16T08:05:19;2.57;;;2.33;;
9689;SDS011;4884;42.614;23.340;2023-03-16T08:07:45;3.17;;;2.13;;
9689;SDS011;4884;42.614;23.340;2023-03-16T08:10:10;3.87;;;3.40;;
9689;SDS011;4884;42.614;23.340;2023-03-16T08:12:35;32.20;;;16.17;;
9689;SDS011;4884;42.614;23.340;2023-03-16T08:15:01;3.90;;;2.23;;
9689;SDS011;4884;42.614;23.340;2023-03-16T08:17:26;3.63;;;3.43;;
9689;SDS011;4884;42.614;23.340;2023-03-16T08:19:52;2.30;;;2.10;;
9689;SDS011;4884;42.614;23.340;2023-03-16T08:22:17;5.57;;;5.13;;
9689;SDS011;4884;42.614;23.340;2023-03-16T08:24:43;3.10;;;2.57;;
9689;SDS011;4884;42.614;23.340;2023-03-16T08:27:08;2.37;;;2.07;;
9689;SDS011;4884;42.614;23.340;2023-03-16T08:29:33;5.30;;;2.87;;
9689;SDS011;4884;42.614;23.340;2023-03-16T08:31:59;2.37;;;1.97;;
9689;SDS011;4884;42.614;23.340;2023-03-16T08:34:25;4.17;;;3.87;;
9689;SDS011;4884;42.614;23.340;2023-03-16T08:36:51;3.40;;;2.83;;
9689;SDS011;4884;42.614;23.340;2023-03-16T08:39:17;4.33;;;3.00;;
9689;SDS011;4884;42.614;23.340;2023-03-16T08:41:43;3.33;;;3.03;;
9689;SDS011;4884;42.614;23.340;2023-03-16T08:44:09;4.20;;;3.90;;
9689;SDS011;4884;42.614;23.340;2023-03-16T08:46:35;4.57;;;4.17;;
9689;SDS011;4884;42.614;23.340;2023-03-16T08:49:00;2.07;;;1.87;;
9689;SDS011;4884;42.614;23.340;2023-03-16T08:51:26;1.47;;;1.37;;
9689;SDS011;4884;42.614;23.340;2023-03-16T08:53:53;6.30;;;5.77;;
9689;SDS011;4884;42.614;23.340;2023-03-16T08:56:19;4.83;;;3.67;;
9689;SDS011;4884;42.614;23.340;2023-03-16T08:58:44;3.10;;;2.80;;
9689;SDS011;4884;42.614;23.340;2023-03-16T09:01:13;2.03;;;1.70;;
9689;SDS011;4884;42.614;23.340;2023-03-16T09:03:41;9.13;;;8.33;;
9689;SDS011;4884;42.614;23.340;2023-03-16T09:06:09;3.97;;;3.67;;
9689;SDS011;4884;42.614;23.340;2023-03-16T09:08:37;4.13;;;3.43;;
9689;SDS011;4884;42.614;23.340;2023-03-16T09:11:10;2.80;;;2.60;;
9689;SDS011;4884;42.614;23.340;2023-03-16T09:13:38;2.37;;;2.17;;
9689;SDS011;4884;42.614;23.340;2023-03-16T09:16:04;3.40;;;2.40;;
9689;SDS011;4884;42.614;23.340;2023-03-16T09:18:31;2.27;;;2.07;;
9689;SDS011;4884;42.614;23.340;2023-03-16T09:20:59;3.20;;;3.00;;
9689;SDS011;4884;42.614;23.340;2023-03-16T09:23:26;2.80;;;2.60;;
9689;SDS011;4884;42.614;23.340;2023-03-16T09:25:55;2.80;;;2.33;;
9689;SDS011;4884;42.614;23.340;2023-03-16T09:28:22;2.93;;;2.70;;
9689;SDS011;4884;42.614;23.340;2023-03-16T09:30:47;6.43;;;5.93;;
9689;SDS011;4884;42.614;23.340;2023-03-16T09:33:14;3.17;;;2.70;;
9689;SDS011;4884;42.614;23.340;2023-03-16T09:35:39;3.10;;;2.20;;
9689;SDS011;4884;42.614;23.340;2023-03-16T09:38:05;2.43;;;2.20;;
9689;SDS011;4884;42.614;23.340;2023-03-16T09:40:31;3.67;;;3.27;;
9689;SDS011;4884;42.614;23.340;2023-03-16T09:48:37;3.47;;;3.17;;
9689;SDS011;4884;42.614;23.340;2023-03-16T09:51:04;4.03;;;3.73;;
9689;SDS011;4884;42.614;23.340;2023-03-16T09:53:52;2.20;;;1.73;;
9689;SDS011;4884;42.614;23.340;2023-03-16T09:56:28;3.40;;;3.10;;
9689;SDS011;4884;42.614;23.340;2023-03-16T09:58:56;3.40;;;2.50;;
9689;SDS011;4884;42.614;23.340;2023-03-16T10:06:27;3.90;;;2.77;;
9689;SDS011;4884;42.614;23.340;2023-03-16T10:09:03;2.97;;;2.17;;
9689;SDS011;4884;42.614;23.340;2023-03-16T10:11:46;5.07;;;3.00;;
9689;SDS011;4884;42.614;23.340;2023-03-16T10:14:20;4.67;;;2.33;;
9689;SDS011;4884;42.614;23.340;2023-03-16T10:16:54;3.60;;;2.93;;
9689;SDS011;4884;42.614;23.340;2023-03-16T10:19:24;2.60;;;2.27;;
9689;SDS011;4884;42.614;23.340;2023-03-16T10:21:57;2.20;;;1.90;;
9689;SDS011;4884;42.614;23.340;2023-03-16T10:27:26;2.37;;;2.00;;
9689;SDS011;4884;42.614;23.340;2023-03-16T10:29:54;2.67;;;1.67;;
9689;SDS011;4884;42.614;23.340;2023-03-16T10:32:20;3.57;;;2.73;;
9689;SDS011;4884;42.614;23.340;2023-03-16T10:34:52;2.37;;;2.13;;
9689;SDS011;4884;42.614;23.340;2023-03-16T10:37:21;2.73;;;2.17;;
9689;SDS011;4884;42.614;23.340;2023-03-16T10:39:48;2.57;;;2.37;;
9689;SDS011;4884;42.614;23.340;2023-03-16T10:42:14;3.43;;;2.63;;
9689;SDS011;4884;42.614;23.340;2023-03-16T10:44:41;3.00;;;2.70;;
9689;SDS011;4884;42.614;23.340;2023-03-16T10:47:06;2.73;;;2.30;;
9689;SDS011;4884;42.614;23.340;2023-03-16T10:49:38;5.00;;;3.30;;
9689;SDS011;4884;42.614;23.340;2023-03-16T10:55:22;2.43;;;2.10;;
9689;SDS011;4884;42.614;23.340;2023-03-16T10:57:49;4.63;;;3.13;;
9689;SDS011;4884;42.614;23.340;2023-03-16T11:02:47;4.60;;;3.17;;
9689;SDS011;4884;42.614;23.340;2023-03-16T11:07:45;4.23;;;3.33;;
9689;SDS011;4884;42.614;23.340;2023-03-16T11:10:23;4.17;;;3.23;;
9689;SDS011;4884;42.614;23.340;2023-03-16T11:12:52;3.27;;;2.80;;
9689;SDS011;4884;42.614;23.340;2023-03-16T11:15:18;2.63;;;2.43;;
9689;SDS011;4884;42.614;23.340;2023-03-16T11:17:44;2.97;;;2.70;;
9689;SDS011;4884;42.614;23.340;2023-03-16T11:20:22;3.37;;;3.07;;
9689;SDS011;4884;42.614;23.340;2023-03-16T11:22:51;4.00;;;3.10;;
9689;SDS011;4884;42.614;23.340;2023-03-16T11:25:27;3.47;;;3.17;;
9689;SDS011;4884;42.614;23.340;2023-03-16T11:28:02;3.40;;;3.07;;
9689;SDS011;4884;42.614;23.340;2023-03-16T11:30:39;3.50;;;2.83;;
9689;SDS011;4884;42.614;23.340;2023-03-16T11:33:08;5.07;;;3.33;;
9689;SDS011;4884;42.614;23.340;2023-03-16T11:35:50;6.67;;;3.63;;
9689;SDS011;4884;42.614;23.340;2023-03-16T11:38:39;5.77;;;3.87;;
9689;SDS011;4884;42.614;23.340;2023-03-16T11:41:22;7.07;;;3.70;;
9689;SDS011;4884;42.614;23.340;2023-03-16T11:46:33;3.90;;;3.60;;
9689;SDS011;4884;42.614;23.340;2023-03-16T11:49:33;4.07;;;3.70;;
9689;SDS011;4884;42.614;23.340;2023-03-16T11:52:04;3.87;;;3.57;;
9689;SDS011;4884;42.614;23.340;2023-03-16T12:03:41;6.13;;;4.87;;
9689;SDS011;4884;42.614;23.340;2023-03-16T12:09:06;4.87;;;4.20;;
9689;SDS011;4884;42.614;23.340;2023-03-16T12:11:53;14.07;;;8.80;;
9689;SDS011;4884;42.614;23.340;2023-03-16T12:17:08;5.73;;;4.77;;
9689;SDS011;4884;42.614;23.340;2023-03-16T12:22:36;8.43;;;5.10;;
9689;SDS011;4884;42.614;23.340;2023-03-16T12:25:10;7.20;;;5.63;;
9689;SDS011;4884;42.614;23.340;2023-03-16T12:27:39;11.07;;;6.87;;
9689;SDS011;4884;42.614;23.340;2023-03-16T12:30:12;12.23;;;6.20;;
9689;SDS011;4884;42.614;23.340;2023-03-16T12:46:56;9.57;;;6.37;;
9689;SDS011;4884;42.614;23.340;2023-03-16T12:49:30;6.17;;;5.33;;
9689;SDS011;4884;42.614;23.340;2023-03-16T12:52:02;6.30;;;5.67;;
9689;SDS011;4884;42.614;23.340;2023-03-16T12:54:29;8.17;;;5.53;;
9689;SDS011;4884;42.614;23.340;2023-03-16T12:59:39;5.27;;;4.73;;
9689;SDS011;4884;42.614;23.340;2023-03-16T13:02:14;6.87;;;5.77;;
9689;SDS011;4884;42.614;23.340;2023-03-16T13:04:40;6.90;;;5.83;;
9689;SDS011;4884;42.614;23.340;2023-03-16T13:07:13;8.70;;;6.10;;
9689;SDS011;4884;42.614;23.340;2023-03-16T13:09:46;7.80;;;6.77;;
9689;SDS011;4884;42.614;23.340;2023-03-16T13:12:21;7.23;;;5.97;;
9689;SDS011;4884;42.614;23.340;2023-03-16T13:14:48;7.17;;;5.97;;
9689;SDS011;4884;42.614;23.340;2023-03-16T13:19:44;10.50;;;7.53;;
9689;SDS011;4884;42.614;23.340;2023-03-16T13:22:29;9.93;;;6.37;;
9689;SDS011;4884;42.614;23.340;2023-03-16T13:27:25;15.43;;;10.33;;
9689;SDS011;4884;42.614;23.340;2023-03-16T13:29:54;8.73;;;6.93;;
9689;SDS011;4884;42.614;23.340;2023-03-16T13:32:24;10.20;;;7.53;;
9689;SDS011;4884;42.614;23.340;2023-03-16T13:34:52;9.03;;;6.93;;
9689;SDS011;4884;42.614;23.340;2023-03-16T13:37:22;7.30;;;6.53;;
9689;SDS011;4884;42.614;23.340;2023-03-16T13:39:51;8.03;;;6.53;;
9689;SDS011;4884;42.614;23.340;2023-03-16T13:42:19;9.40;;;7.30;;
9689;SDS011;4884;42.614;23.340;2023-03-16T13:44:46;7.10;;;5.87;;
9689;SDS011;4884;42.614;23.340;2023-03-16T13:47:12;8.50;;;6.73;;
9689;SDS011;4884;42.614;23.340;2023-03-16T13:49:47;10.40;;;7.63;;
9689;SDS011;4884;42.614;23.340;2023-03-16T13:52:18;9.87;;;8.13;;
9689;SDS011;4884;42.614;23.340;2023-03-16T13:54:48;9.60;;;7.33;;
9689;SDS011;4884;42.614;23.340;2023-03-16T13:57:14;10.23;;;8.00;;
9689;SDS011;4884;42.614;23.340;2023-03-16T13:59:40;12.37;;;8.33;;
9689;SDS011;4884;42.614;23.340;2023-03-16T14:02:15;11.37;;;9.30;;
9689;SDS011;4884;42.614;23.340;2023-03-16T14:04:42;10.40;;;9.17;;
9689;SDS011;4884;42.614;23.340;2023-03-16T14:07:12;13.93;;;9.97;;
9689;SDS011;4884;42.614;23.340;2023-03-16T14:09:41;10.47;;;8.57;;
9689;SDS011;4884;42.614;23.340;2023-03-16T14:12:10;11.97;;;9.60;;
9689;SDS011;4884;42.614;23.340;2023-03-16T14:14:39;12.07;;;10.33;;
9689;SDS011;4884;42.614;23.340;2023-03-16T14:17:13;15.80;;;11.23;;
9689;SDS011;4884;42.614;23.340;2023-03-16T14:19:45;14.37;;;11.00;;
9689;SDS011;4884;42.614;23.340;2023-03-16T14:22:33;16.10;;;10.27;;
9689;SDS011;4884;42.614;23.340;2023-03-16T14:25:01;15.40;;;10.00;;
9689;SDS011;4884;42.614;23.340;2023-03-16T14:30:14;14.97;;;10.17;;
9689;SDS011;4884;42.614;23.340;2023-03-16T14:32:40;14.77;;;10.50;;
9689;SDS011;4884;42.614;23.340;2023-03-16T14:35:13;13.93;;;10.00;;
9689;SDS011;4884;42.614;23.340;2023-03-16T14:37:40;15.30;;;11.40;;
9689;SDS011;4884;42.614;23.340;2023-03-16T14:40:22;16.33;;;12.37;;
9689;SDS011;4884;42.614;23.340;2023-03-16T14:42:48;15.90;;;11.63;;
9689;SDS011;4884;42.614;23.340;2023-03-16T14:45:14;15.97;;;10.93;;
9689;SDS011;4884;42.614;23.340;2023-03-16T14:47:41;15.00;;;11.57;;
9689;SDS011;4884;42.614;23.340;2023-03-16T14:50:12;17.07;;;12.83;;
9689;SDS011;4884;42.614;23.340;2023-03-16T14:52:40;15.53;;;11.67;;
9689;SDS011;4884;42.614;23.340;2023-03-16T14:55:10;17.50;;;11.83;;
9689;SDS011;4884;42.614;23.340;2023-03-16T14:57:39;14.77;;;12.27;;
9689;SDS011;4884;42.614;23.340;2023-03-16T15:00:06;18.27;;;13.13;;
9689;SDS011;4884;42.614;23.340;2023-03-16T15:02:33;16.77;;;11.67;;
9689;SDS011;4884;42.614;23.340;2023-03-16T15:04:59;17.93;;;12.27;;
9689;SDS011;4884;42.614;23.340;2023-03-16T15:07:26;18.67;;;13.53;;
9689;SDS011;4884;42.614;23.340;2023-03-16T15:09:55;18.83;;;13.67;;
9689;SDS011;4884;42.614;23.340;2023-03-16T15:12:31;24.40;;;15.10;;
9689;SDS011;4884;42.614;23.340;2023-03-16T15:14:58;19.50;;;14.30;;
9689;SDS011;4884;42.614;23.340;2023-03-16T15:17:40;23.13;;;15.83;;
9689;SDS011;4884;42.614;23.340;2023-03-16T15:20:13;22.13;;;16.17;;
9689;SDS011;4884;42.614;23.340;2023-03-16T15:22:40;32.40;;;22.07;;
9689;SDS011;4884;42.614;23.340;2023-03-16T15:27:47;72.60;;;35.57;;
9689;SDS011;4884;42.614;23.340;2023-03-16T15:30:20;51.00;;;26.30;;
9689;SDS011;4884;42.614;23.340;2023-03-16T15:32:47;45.50;;;27.13;;
9689;SDS011;4884;42.614;23.340;2023-03-16T15:35:13;33.57;;;20.20;;
9689;SDS011;4884;42.614;23.340;2023-03-16T15:37:38;25.53;;;17.90;;
9689;SDS011;4884;42.614;23.340;2023-03-16T15:40:20;21.77;;;14.47;;
9689;SDS011;4884;42.614;23.340;2023-03-16T15:42:47;20.63;;;14.83;;
9689;SDS011;4884;42.614;23.340;2023-03-16T15:45:14;19.60;;;14.17;;
9689;SDS011;4884;42.614;23.340;2023-03-16T15:47:45;18.40;;;12.70;;
9689;SDS011;4884;42.614;23.340;2023-03-16T15:50:13;14.07;;;11.33;;
9689;SDS011;4884;42.614;23.340;2023-03-16T15:52:40;13.27;;;10.43;;
9689;SDS011;4884;42.614;23.340;2023-03-16T15:55:25;15.90;;;12.20;;
9689;SDS011;4884;42.614;23.340;2023-03-16T15:57:57;18.13;;;12.90;;
9689;SDS011;4884;42.614;23.340;2023-03-16T16:02:52;12.67;;;10.00;;
9689;SDS011;4884;42.614;23.340;2023-03-16T16:05:18;17.77;;;13.60;;
9689;SDS011;4884;42.614;23.340;2023-03-16T16:07:43;18.37;;;12.47;;
9689;SDS011;4884;42.614;23.340;2023-03-16T16:10:11;23.47;;;15.30;;
9689;SDS011;4884;42.614;23.340;2023-03-16T16:12:38;20.37;;;14.67;;
9689;SDS011;4884;42.614;23.340;2023-03-16T16:15:08;19.27;;;13.27;;
9689;SDS011;4884;42.614;23.340;2023-03-16T16:17:42;23.30;;;14.97;;
9689;SDS011;4884;42.614;23.340;2023-03-16T16:20:29;16.63;;;11.50;;
9689;SDS011;4884;42.614;23.340;2023-03-16T16:22:56;18.63;;;13.03;;
9689;SDS011;4884;42.614;23.340;2023-03-16T16:25:37;20.80;;;13.13;;